New Kent, Virginia
Current Conditions -  °F | °C
As of 2:55 AM on Wednesday 22 Oct 2014 (Local Time) from KW96 Reporting Station
Broken Clouds Broken Clouds  
Wind Chill: 52°   Ceiling: 2500
Heat Index: 52°   Visibility: 10mi
Dew Point: 49°   Wind: 3mph
Humidity: 89%   Direction: 320°NW
Pressure: 29.86"   Gusts: NA
Location:  37.52°N, 76.98°W
Report Text: KW96 220655Z AUTO 32003KT 10SM BKN025 BKN050 11/10 A2986 RMK AO1 T01130095
Loading
Personal Weather Stations






























Interactive Weather Map
Tropical Storm Tracking
New forecast layout! Learn more

10-Day Weather Forecast

Advertisements
Track Severe Weather on mobile